Hovedside
METAR-TAF:

METAR-TAF

Lufthavner :

Fua'amotu internasjonale lufthavn

Tongatapu, Tonga

breddegrad: 21-14S, lengdegrad: 175-09W, høyde over havet: 38 m

Gjeldene værobservasjon

Denne rapporten ble laget for 54 minutter siden, klokken 17:00 UTC
Vind 9 kt fra Øst-sørøst
Temperatur 22°C
Luftfuktighet 73%
Trykk 1016 hPa
Sikt 10 km eller mer
Få skyer i en høyde av 1600 ft
Brutte skyer i en høyde av 10000 ft

METAR: NFTF 211700Z 11009KT 9999 FEW016 BKN100 22/17 Q1016

Tid: 06:54 (17:54 UTC)

Varsel

Denne rapporten ble laget for 43 minutter siden, klokken 17:11 UTC
Varsel gyldig fra 21. klokken 18 UTC til 22. klokken 18 UTC
Vind 7 kt fra Øst-sørøst
Sikt 10 km eller mer
Få skyer i en høyde av 1600 ft
Brutte skyer i en høyde av 3000 ft

TAF: NFTF 211711Z 2118/2218 11007KT 9999 FEW016 BKN030

Værobservasjoner og værvarsel for over 4000 flyplasser (METAR- og TAF-rapporter).

Tilgjengelige stasjoner er representert av de røde og gule prikkene på kartet.

Hold musepekeren over prikken for å se navnet på stasjonen.

Klikk så for å se værobservasjoner og -varsler.

For å forandre kartet kan du klikke på den grønne knappen med svart kryss for å zoome inn, på den grønne knappen med strek for å zoome ut, eller på de grønne pilene for å se tilstøtende kart.


METAR-TAF: